Time;durP1;ratioP1;P1;durP2;ratioP2;P2;SDS_P1;SDS_P2;PMS_P1;PMS_P2;Temp;Humidity;BMP_temperature;BMP_pressure;BME280_temperature;BME280_humidity;BME280_pressure;Samples;Min_cycle;Max_cycle;Signal;HPM_P1;HPM_P2
2023/04/09 00:00:36;;;;;;;;;;;10.70;1.00;;;;;;5077356;28;19915;-74
2023/04/09 00:03:02;;;;;;;;;;;10.70;1.00;;;;;;5095505;28;19908;-73
2023/04/09 00:05:27;;;;;;;;;;;10.60;1.00;;;;;;5095606;28;19916;-74
2023/04/09 00:07:53;;;;;;;;;;;10.50;1.00;;;;;;5077290;28;19908;-72
2023/04/09 00:10:19;;;;;;;;;;;10.40;1.00;;;;;;5095258;28;19953;-73
2023/04/09 00:12:44;;;;;;;;;;;10.20;1.00;;;;;;5094578;28;20023;-73
2023/04/09 00:15:10;;;;;;;;;;;10.30;1.00;;;;;;5095283;28;19908;-73
2023/04/09 00:17:35;;;;;;;;;;;10.30;1.00;;;;;;5095589;28;20265;-73
2023/04/09 00:20:01;;;;;;;;;;;10.30;1.00;;;;;;5095131;28;19914;-74
2023/04/09 00:22:27;;;;;;;;;;;10.30;1.00;;;;;;5095139;28;19912;-71
2023/04/09 00:24:52;;;;;;;;;;;10.30;1.00;;;;;;5095071;28;20328;-73
2023/04/09 00:27:18;;;;;;;;;;;10.20;1.00;;;;;;5095187;28;19908;-73
2023/04/09 00:29:44;;;;;;;;;;;10.20;1.00;;;;;;5095110;28;19950;-72
2023/04/09 00:32:09;;;;;;;;;;;10.10;1.00;;;;;;5094941;28;19915;-73
2023/04/09 00:34:35;;;;;;;;;;;10.00;1.00;;;;;;5095279;28;19909;-72
2023/04/09 00:37:01;;;;;;;;;;;10.00;1.00;;;;;;5094857;28;19908;-73
2023/04/09 00:39:26;;;;;;;;;;;10.00;1.00;;;;;;5094599;28;20027;-73
2023/04/09 00:41:59;;;;;;;;;;;9.90;1.00;;;;;;5094871;28;19908;-73
2023/04/09 00:44:25;;;;;;;;;;;9.80;1.00;;;;;;5094710;28;19908;-72
2023/04/09 00:46:51;;;;;;;;;;;9.70;1.00;;;;;;5094585;28;20257;-72
2023/04/09 00:49:17;;;;;;;;;;;9.50;1.00;;;;;;5094622;28;19908;-72
2023/04/09 00:51:43;;;;;;;;;;;9.40;1.00;;;;;;5076317;28;19962;-72
2023/04/09 00:54:09;;;;;;;;;;;9.50;1.00;;;;;;5094648;28;19912;-73
2023/04/09 00:56:35;;;;;;;;;;;9.60;1.00;;;;;;5094491;28;20261;-74
2023/04/09 00:59:01;;;;;;;;;;;9.60;1.00;;;;;;5094534;28;19908;-73
2023/04/09 01:01:26;;;;;;;;;;;9.50;1.00;;;;;;5094493;28;20085;-73
2023/04/09 01:03:52;;;;;;;;;;;9.40;1.00;;;;;;5094078;28;20284;-73
2023/04/09 01:06:27;;;;;;;;;;;9.30;1.00;;;;;;5094662;28;20396;-72
2023/04/09 01:08:52;;;;;;;;;;;9.30;1.00;;;;;;5094447;28;19915;-72
2023/04/09 01:11:33;;;;;;;;;;;9.30;1.00;;;;;;5094242;28;19908;-73
2023/04/09 01:14:03;;;;;;;;;;;9.40;1.00;;;;;;5094163;28;19908;-73
2023/04/09 01:16:31;;;;;;;;;;;9.40;1.00;;;;;;5094607;28;20286;-72
2023/04/09 01:18:58;;;;;;;;;;;9.40;1.00;;;;;;5094338;28;19909;-74
2023/04/09 01:21:30;;;;;;;;;;;9.40;1.00;;;;;;5094094;28;19970;-73
2023/04/09 01:23:55;;;;;;;;;;;9.30;1.00;;;;;;5093819;28;19908;-72
2023/04/09 01:26:39;;;;;;;;;;;9.30;1.00;;;;;;5094000;28;20388;-72
2023/04/09 01:29:06;;;;;;;;;;;9.20;1.00;;;;;;5075892;28;19995;-73
2023/04/09 01:31:35;;;;;;;;;;;9.20;1.00;;;;;;5093969;28;19961;-73
2023/04/09 01:34:01;;;;;;;;;;;9.30;1.00;;;;;;5094120;28;19916;-73
2023/04/09 01:36:27;;;;;;;;;;;9.30;1.00;;;;;;5093903;28;19916;-73
2023/04/09 01:38:54;;;;;;;;;;;9.30;1.00;;;;;;5075771;28;19908;-72
2023/04/09 01:41:20;;;;;;;;;;;9.30;1.00;;;;;;5093453;28;19920;-72
2023/04/09 01:43:48;;;;;;;;;;;9.20;1.00;;;;;;5094316;28;19912;-72
2023/04/09 01:46:14;;;;;;;;;;;9.00;1.00;;;;;;5093720;28;20286;-73
2023/04/09 01:48:41;;;;;;;;;;;9.10;1.00;;;;;;5093837;28;20368;-73
2023/04/09 01:51:07;;;;;;;;;;;9.20;1.00;;;;;;5093968;28;19915;-73
2023/04/09 01:53:32;;;;;;;;;;;9.10;1.00;;;;;;5093819;28;19908;-72
2023/04/09 01:55:58;;;;;;;;;;;9.10;1.00;;;;;;5093720;28;19908;-74
2023/04/09 01:58:24;;;;;;;;;;;9.10;1.00;;;;;;5093602;28;19966;-73
2023/04/09 02:00:51;;;;;;;;;;;9.00;1.00;;;;;;5075552;28;20268;-73
2023/04/09 02:03:23;;;;;;;;;;;9.00;1.00;;;;;;5093839;28;19915;-73
2023/04/09 02:05:54;;;;;;;;;;;8.90;1.00;;;;;;5093556;28;19956;-72
2023/04/09 02:08:20;;;;;;;;;;;9.10;1.00;;;;;;5093666;28;19908;-73
2023/04/09 02:10:52;;;;;;;;;;;9.10;1.00;;;;;;5093594;28;20363;-74
2023/04/09 02:13:18;;;;;;;;;;;9.10;1.00;;;;;;5093715;28;19981;-74
2023/04/09 02:15:44;;;;;;;;;;;9.10;1.00;;;;;;5093600;28;19908;-72
2023/04/09 02:18:22;;;;;;;;;;;9.10;1.00;;;;;;5093481;28;19908;-73
2023/04/09 02:20:48;;;;;;;;;;;9.10;1.00;;;;;;5093686;28;20447;-71
2023/04/09 02:23:14;;;;;;;;;;;9.00;1.00;;;;;;5093417;28;19943;-73
2023/04/09 02:25:40;;;;;;;;;;;8.90;1.00;;;;;;5093323;28;19962;-73
2023/04/09 02:28:06;;;;;;;;;;;8.90;1.00;;;;;;5093531;28;19912;-74
2023/04/09 02:30:31;;;;;;;;;;;8.90;1.00;;;;;;5093401;28;20342;-71
2023/04/09 02:32:57;;;;;;;;;;;8.90;1.00;;;;;;5075252;28;19938;-73
2023/04/09 02:35:22;;;;;;;;;;;8.90;1.00;;;;;;5077453;28;19915;-73
2023/04/09 02:37:48;;;;;;;;;;;8.90;1.00;;;;;;5097192;28;20273;-72
2023/04/09 02:40:13;;;;;;;;;;;8.60;1.00;;;;;;5097103;28;19927;-74
2023/04/09 02:42:39;;;;;;;;;;;8.50;1.00;;;;;;5097124;28;19909;-74
2023/04/09 02:45:05;;;;;;;;;;;8.70;1.00;;;;;;5097414;28;19912;-74
2023/04/09 02:47:30;;;;;;;;;;;8.80;1.00;;;;;;5097039;28;19908;-72
2023/04/09 02:49:56;;;;;;;;;;;8.80;1.00;;;;;;5096928;28;20394;-73
2023/04/09 02:52:23;;;;;;;;;;;8.70;1.00;;;;;;5097022;28;19908;-73
2023/04/09 02:54:49;;;;;;;;;;;8.70;1.00;;;;;;5096799;28;20276;-72
2023/04/09 02:57:15;;;;;;;;;;;8.80;1.00;;;;;;5096723;28;19908;-74
2023/04/09 02:59:40;;;;;;;;;;;8.90;1.00;;;;;;5096904;28;20317;-73
2023/04/09 03:02:06;;;;;;;;;;;8.90;1.00;;;;;;5096712;28;19908;-72
2023/04/09 03:04:31;;;;;;;;;;;8.90;1.00;;;;;;5096734;28;19912;-72
2023/04/09 03:06:57;;;;;;;;;;;8.90;1.00;;;;;;5096525;28;19923;-73
2023/04/09 03:09:22;;;;;;;;;;;9.00;1.00;;;;;;5096793;28;19943;-73
2023/04/09 03:11:48;;;;;;;;;;;8.90;1.00;;;;;;5096907;28;19916;-72
2023/04/09 03:14:14;;;;;;;;;;;8.80;1.00;;;;;;5096460;28;19974;-73
2023/04/09 03:16:39;;;;;;;;;;;8.70;1.00;;;;;;5096455;28;19908;-74
2023/04/09 03:19:05;;;;;;;;;;;8.50;1.00;;;;;;5096435;28;19908;-74
2023/04/09 03:21:30;;;;;;;;;;;8.60;1.00;;;;;;5096511;28;19914;-73
2023/04/09 03:23:56;;;;;;;;;;;8.70;1.00;;;;;;5096526;28;19908;-72
2023/04/09 03:26:22;;;;;;;;;;;8.70;1.00;;;;;;5077972;28;20010;-74
2023/04/09 03:28:47;;;;;;;;;;;8.80;1.00;;;;;;5096290;28;20393;-73
2023/04/09 03:31:13;;;;;;;;;;;8.70;1.00;;;;;;5096141;28;19908;-74
2023/04/09 03:33:38;;;;;;;;;;;8.60;1.00;;;;;;5096304;28;19908;-73
2023/04/09 03:36:04;;;;;;;;;;;8.50;1.00;;;;;;5096267;28;19969;-72
2023/04/09 03:38:30;;;;;;;;;;;8.40;1.00;;;;;;5096128;28;20371;-72
2023/04/09 03:40:55;;;;;;;;;;;8.10;1.00;;;;;;5077579;28;19920;-72
2023/04/09 03:43:21;;;;;;;;;;;7.90;1.00;;;;;;5077802;28;19943;-71
2023/04/09 03:45:46;;;;;;;;;;;8.00;1.00;;;;;;5095635;28;19912;-72
2023/04/09 03:48:12;;;;;;;;;;;8.20;1.00;;;;;;5095821;28;19909;-72
2023/04/09 03:50:38;;;;;;;;;;;8.10;1.00;;;;;;5095792;28;19913;-73
2023/04/09 03:53:04;;;;;;;;;;;8.10;1.00;;;;;;5096109;28;19915;-73
2023/04/09 03:55:30;;;;;;;;;;;8.10;1.00;;;;;;5095717;28;20359;-74
2023/04/09 03:57:55;;;;;;;;;;;8.00;1.00;;;;;;5095675;28;19943;-74
2023/04/09 04:00:21;;;;;;;;;;;8.00;1.00;;;;;;5095623;28;19908;-72
2023/04/09 04:02:46;;;;;;;;;;;8.00;1.00;;;;;;5095803;28;19915;-73
2023/04/09 04:05:12;;;;;;;;;;;8.00;1.00;;;;;;5095584;28;20000;-73
2023/04/09 04:07:38;;;;;;;;;;;7.90;1.00;;;;;;5095501;28;20352;-73
2023/04/09 04:10:04;;;;;;;;;;;7.80;1.00;;;;;;5095448;28;19991;-74
2023/04/09 04:12:30;;;;;;;;;;;7.80;1.00;;;;;;5095384;28;19908;-72
2023/04/09 04:14:56;;;;;;;;;;;7.90;1.00;;;;;;5095511;28;19961;-73
2023/04/09 04:17:21;;;;;;;;;;;8.00;1.00;;;;;;5095290;28;19908;-72
2023/04/09 04:19:47;;;;;;;;;;;8.00;1.00;;;;;;5095522;28;19958;-73
2023/04/09 04:22:12;;;;;;;;;;;8.00;1.00;;;;;;5095298;28;19908;-73
2023/04/09 04:24:38;;;;;;;;;;;7.80;1.00;;;;;;5095073;28;19931;-72
2023/04/09 04:27:04;;;;;;;;;;;7.70;1.00;;;;;;5095468;28;19912;-72
2023/04/09 04:29:29;;;;;;;;;;;7.80;1.00;;;;;;5095052;28;19949;-74
2023/04/09 04:31:55;;;;;;;;;;;7.80;1.00;;;;;;5094971;28;20307;-73
2023/04/09 04:34:20;;;;;;;;;;;7.70;1.00;;;;;;5095125;28;20009;-74
2023/04/09 04:36:46;;;;;;;;;;;7.60;1.00;;;;;;5094950;28;19908;-73
2023/04/09 04:39:11;;;;;;;;;;;7.80;1.00;;;;;;5094739;28;19999;-73
2023/04/09 04:41:37;;;;;;;;;;;7.90;2.20;;;;;;5094455;28;20329;-72
2023/04/09 04:44:02;;;;;;;;;;;7.90;4.00;;;;;;5094928;28;19999;-72
2023/04/09 04:46:28;;;;;;;;;;;7.90;6.30;;;;;;5094858;28;19961;-73
2023/04/09 04:48:54;;;;;;;;;;;7.90;7.80;;;;;;5094672;28;19908;-73
2023/04/09 04:51:19;;;;;;;;;;;7.90;9.50;;;;;;5094651;28;19962;-74
2023/04/09 04:53:45;;;;;;;;;;;7.90;12.20;;;;;;5095068;28;19999;-73
2023/04/09 04:56:13;;;;;;;;;;;7.80;14.50;;;;;;5094527;28;20279;-71
2023/04/09 04:58:39;;;;;;;;;;;7.80;15.60;;;;;;5093881;28;19908;-73
2023/04/09 05:01:05;;;;;;;;;;;7.80;18.30;;;;;;5094625;28;20368;-73
2023/04/09 05:03:30;;;;;;;;;;;7.70;19.30;;;;;;5094440;28;19909;-74
2023/04/09 05:05:56;;;;;;;;;;;7.70;19.30;;;;;;5076113;28;19912;-72
2023/04/09 05:08:21;;;;;;;;;;;7.70;21.20;;;;;;5094307;28;19908;-73
2023/04/09 05:10:47;;;;;;;;;;;7.70;22.20;;;;;;5094310;28;19951;-72
2023/04/09 05:13:12;;;;;;;;;;;7.60;23.30;;;;;;5094327;28;20296;-73
2023/04/09 05:15:39;;;;;;;;;;;7.60;23.10;;;;;;5094137;28;19998;-73
2023/04/09 05:18:05;;;;;;;;;;;7.50;23.40;;;;;;5094119;28;19912;-73
2023/04/09 05:20:31;;;;;;;;;;;7.50;22.40;;;;;;5094062;28;19936;-73
2023/04/09 05:22:57;;;;;;;;;;;7.40;20.20;;;;;;5094357;28;19915;-73
2023/04/09 05:25:22;;;;;;;;;;;7.50;15.70;;;;;;5094226;28;19908;-74
2023/04/09 05:27:48;;;;;;;;;;;7.60;9.10;;;;;;5093891;28;19965;-72
2023/04/09 05:30:14;;;;;;;;;;;7.50;12.80;;;;;;5094026;28;19931;-73
2023/04/09 05:32:40;;;;;;;;;;;7.50;20.50;;;;;;5075941;28;19908;-72
2023/04/09 05:35:05;;;;;;;;;;;7.60;23.40;;;;;;5094004;28;19909;-73
2023/04/09 05:37:31;;;;;;;;;;;7.60;23.40;;;;;;5093949;28;19933;-73
2023/04/09 05:39:57;;;;;;;;;;;7.70;24.40;;;;;;5093679;28;19955;-74
2023/04/09 05:42:22;;;;;;;;;;;7.70;24.60;;;;;;5094114;28;20252;-72
2023/04/09 05:44:48;;;;;;;;;;;7.70;24.80;;;;;;5093966;28;19915;-74
2023/04/09 05:47:13;;;;;;;;;;;7.80;24.80;;;;;;5093766;28;19954;-73
2023/04/09 05:49:39;;;;;;;;;;;7.80;24.50;;;;;;5093976;28;19908;-74
2023/04/09 05:52:04;;;;;;;;;;;7.80;27.40;;;;;;5093816;28;19908;-73
2023/04/09 05:54:30;;;;;;;;;;;7.80;25.40;;;;;;5094164;28;19916;-72
2023/04/09 05:56:56;;;;;;;;;;;7.90;25.30;;;;;;5093643;28;19995;-73
2023/04/09 05:59:21;;;;;;;;;;;7.90;25.60;;;;;;5093667;28;19909;-74
2023/04/09 06:01:47;;;;;;;;;;;7.90;22.50;;;;;;5093791;28;19938;-72
2023/04/09 06:04:12;;;;;;;;;;;7.90;23.80;;;;;;5093638;28;19908;-73
2023/04/09 06:06:38;;;;;;;;;;;8.00;23.10;;;;;;5093695;28;19912;-74
2023/04/09 06:09:04;;;;;;;;;;;8.10;18.70;;;;;;5077291;28;19947;-73
2023/04/09 06:11:30;;;;;;;;;;;8.10;15.80;;;;;;5097719;28;19908;-72
2023/04/09 06:13:55;;;;;;;;;;;8.20;15.60;;;;;;5097791;28;20390;-73
2023/04/09 06:16:21;;;;;;;;;;;8.20;10.00;;;;;;5097684;28;19920;-73
2023/04/09 06:18:48;;;;;;;;;;;8.20;9.40;;;;;;5097480;28;19995;-72
2023/04/09 06:21:14;;;;;;;;;;;8.30;7.60;;;;;;5079293;28;20057;-72
2023/04/09 06:23:39;;;;;;;;;;;8.20;1.00;;;;;;5097483;28;20370;-72
2023/04/09 06:26:05;;;;;;;;;;;7.80;3.30;;;;;;5097400;28;19919;-74
2023/04/09 06:28:31;;;;;;;;;;;7.80;12.70;;;;;;5097456;28;19957;-73
2023/04/09 06:30:57;;;;;;;;;;;7.70;18.50;;;;;;5079149;28;20276;-73
2023/04/09 06:33:23;;;;;;;;;;;8.00;18.80;;;;;;5097256;28;20320;-73
2023/04/09 06:35:48;;;;;;;;;;;8.40;14.70;;;;;;5097177;28;19908;-73
2023/04/09 06:38:14;;;;;;;;;;;8.60;11.60;;;;;;5097192;28;19951;-73
2023/04/09 06:40:41;;;;;;;;;;;9.10;7.90;;;;;;5078755;28;19920;-73
2023/04/09 06:43:07;;;;;;;;;;;9.60;1.00;;;;;;5097241;28;19915;-73
2023/04/09 06:45:33;;;;;;;;;;;10.70;1.00;;;;;;5097009;28;19913;-73
2023/04/09 06:47:59;;;;;;;;;;;11.60;1.00;;;;;;5097035;28;20364;-73
2023/04/09 06:50:25;;;;;;;;;;;12.40;1.00;;;;;;5096900;28;19962;-73
2023/04/09 06:52:51;;;;;;;;;;;13.00;1.00;;;;;;5096650;28;19912;-73
2023/04/09 06:55:16;;;;;;;;;;;13.10;1.00;;;;;;5096950;28;19915;-73
2023/04/09 06:57:42;;;;;;;;;;;13.20;1.00;;;;;;5096915;28;19916;-73
2023/04/09 07:00:08;;;;;;;;;;;12.60;1.00;;;;;;5096838;28;19919;-72
2023/04/09 07:02:34;;;;;;;;;;;12.30;1.00;;;;;;5096982;28;19908;-73
2023/04/09 07:05:00;;;;;;;;;;;13.10;1.00;;;;;;5096665;28;19915;-74
2023/04/09 07:07:26;;;;;;;;;;;14.10;1.00;;;;;;5096796;28;19912;-72
2023/04/09 07:09:52;;;;;;;;;;;14.80;1.00;;;;;;5096575;28;19915;-73
2023/04/09 07:12:31;;;;;;;;;;;15.10;1.00;;;;;;5096580;28;20030;-73
2023/04/09 07:14:57;;;;;;;;;;;15.20;1.00;;;;;;5096624;28;19908;-72
2023/04/09 07:17:23;;;;;;;;;;;15.60;1.00;;;;;;5096495;28;19914;-73
2023/04/09 07:19:50;;;;;;;;;;;15.60;1.00;;;;;;5095896;28;19908;-73
2023/04/09 07:22:16;;;;;;;;;;;15.90;1.00;;;;;;5096489;28;19908;-74
2023/04/09 07:24:41;;;;;;;;;;;16.30;1.00;;;;;;5096301;28;19915;-73
2023/04/09 07:27:07;;;;;;;;;;;16.10;1.00;;;;;;5096349;28;19916;-73
2023/04/09 07:29:32;;;;;;;;;;;16.80;1.00;;;;;;5096200;28;19940;-73
2023/04/09 07:32:00;;;;;;;;;;;17.40;1.00;;;;;;5096228;28;19915;-74
2023/04/09 07:34:26;;;;;;;;;;;18.10;1.00;;;;;;5077973;28;19908;-72
2023/04/09 07:36:52;;;;;;;;;;;18.00;1.00;;;;;;5096290;28;20422;-72
2023/04/09 07:39:19;;;;;;;;;;;17.80;1.00;;;;;;5096095;28;19919;-73
2023/04/09 07:41:46;;;;;;;;;;;18.30;1.00;;;;;;5096186;28;19920;-74
2023/04/09 07:44:12;;;;;;;;;;;18.50;1.00;;;;;;5095949;28;19915;-73
2023/04/09 07:46:38;;;;;;;;;;;19.50;1.00;;;;;;5095908;28;19916;-74
2023/04/09 07:49:04;;;;;;;;;;;18.80;1.00;;;;;;5095870;28;19915;-76
2023/04/09 07:51:30;;;;;;;;;;;19.10;1.00;;;;;;5095798;28;19991;-73
2023/04/09 07:53:55;;;;;;;;;;;19.50;1.00;;;;;;5095756;28;19951;-75
2023/04/09 07:56:21;;;;;;;;;;;20.10;1.00;;;;;;5095849;28;20439;-72
2023/04/09 07:58:48;;;;;;;;;;;20.30;1.00;;;;;;5095579;28;19909;-76
2023/04/09 08:01:13;;;;;;;;;;;21.60;1.00;;;;;;5095597;28;19940;-73
2023/04/09 08:03:39;;;;;;;;;;;21.70;1.00;;;;;;5095531;28;19947;-74
2023/04/09 08:06:04;;;;;;;;;;;21.20;1.00;;;;;;5095394;28;19912;-75
2023/04/09 08:08:30;;;;;;;;;;;21.90;1.00;;;;;;5095460;28;20431;-73
2023/04/09 08:10:56;;;;;;;;;;;21.60;1.00;;;;;;5095805;28;19912;-74
2023/04/09 08:13:24;;;;;;;;;;;21.30;1.00;;;;;;5095381;28;19914;-74
2023/04/09 08:15:50;;;;;;;;;;;21.70;1.00;;;;;;5095531;28;19909;-73
2023/04/09 08:18:15;;;;;;;;;;;21.60;1.00;;;;;;5095378;28;20334;-74
2023/04/09 08:20:43;;;;;;;;;;;21.60;1.00;;;;;;5095504;28;19908;-75
2023/04/09 08:23:09;;;;;;;;;;;21.90;1.00;;;;;;5095541;28;20287;-72
2023/04/09 08:25:35;;;;;;;;;;;22.60;1.00;;;;;;5095207;28;19912;-74
2023/04/09 08:28:01;;;;;;;;;;;23.40;1.00;;;;;;5076868;28;20429;-73
2023/04/09 08:30:27;;;;;;;;;;;23.70;1.00;;;;;;5095057;28;19915;-74
2023/04/09 08:32:52;;;;;;;;;;;24.60;1.00;;;;;;5093915;28;19908;-74
2023/04/09 08:35:18;;;;;;;;;;;23.40;1.00;;;;;;5094917;28;19961;-74
2023/04/09 08:37:44;;;;;;;;;;;24.40;1.00;;;;;;5095112;28;19916;-72
2023/04/09 08:40:10;;;;;;;;;;;24.60;1.00;;;;;;5094850;28;20402;-71
2023/04/09 08:42:40;;;;;;;;;;;24.90;1.00;;;;;;5094859;28;19989;-72
2023/04/09 08:45:07;;;;;;;;;;;25.20;1.00;;;;;;5094678;28;19908;-73
2023/04/09 08:47:34;;;;;;;;;;;25.50;1.00;;;;;;5094889;28;19961;-73
2023/04/09 08:49:59;;;;;;;;;;;26.50;1.00;;;;;;5094798;28;19908;-72
2023/04/09 08:52:31;;;;;;;;;;;25.10;1.00;;;;;;5094749;28;20376;-72
2023/04/09 08:54:57;;;;;;;;;;;24.00;1.00;;;;;;5076389;28;19916;-73
2023/04/09 08:57:22;;;;;;;;;;;24.70;1.00;;;;;;5094416;28;19909;-72
2023/04/09 08:59:48;;;;;;;;;;;26.00;1.00;;;;;;5094469;28;19908;-73
2023/04/09 09:02:14;;;;;;;;;;;25.90;1.00;;;;;;5094484;28;19909;-72
2023/04/09 09:04:44;;;;;;;;;;;25.30;1.00;;;;;;5094412;28;19915;-72
2023/04/09 09:07:10;;;;;;;;;;;25.50;1.00;;;;;;5076106;28;20367;-73
2023/04/09 09:09:48;;;;;;;;;;;25.40;1.00;;;;;;5094345;28;19915;-73
2023/04/09 09:12:29;;;;;;;;;;;26.50;1.00;;;;;;5075894;28;20303;-72
2023/04/09 09:14:55;;;;;;;;;;;26.30;1.00;;;;;;5094479;28;19908;-72
2023/04/09 09:17:20;;;;;;;;;;;27.40;1.00;;;;;;5094214;28;19916;-71
2023/04/09 09:19:46;;;;;;;;;;;29.30;1.00;;;;;;5094168;28;19908;-72
2023/04/09 09:22:12;;;;;;;;;;;29.20;1.00;;;;;;5094090;28;20329;-71
2023/04/09 09:24:47;;;;;;;;;;;29.20;1.00;;;;;;5094075;28;19912;-74
2023/04/09 09:27:35;;;;;;;;;;;30.50;1.00;;;;;;5093864;28;20283;-72
2023/04/09 09:30:04;;;;;;;;;;;31.60;1.00;;;;;;5094116;28;20003;-72
2023/04/09 09:32:30;;;;;;;;;;;30.50;1.00;;;;;;5093818;28;20398;-74
2023/04/09 09:35:06;;;;;;;;;;;30.90;1.00;;;;;;5093929;28;19908;-74
2023/04/09 09:37:32;;;;;;;;;;;32.90;1.00;;;;;;5093980;28;19931;-75
2023/04/09 09:39:57;;;;;;;;;;;34.50;1.00;;;;;;5093708;28;19955;-74
2023/04/09 09:42:23;;;;;;;;;;;35.40;1.00;;;;;;5093919;28;19916;-74
2023/04/09 09:44:50;;;;;;;;;;;36.70;1.00;;;;;;5093547;28;20382;-72
2023/04/09 09:47:17;;;;;;;;;;;37.40;1.00;;;;;;5093790;28;19919;-74
2023/04/09 09:49:43;;;;;;;;;;;37.90;1.00;;;;;;5093775;28;19908;-74
2023/04/09 09:52:09;;;;;;;;;;;36.20;1.00;;;;;;5094041;28;19916;-73
2023/04/09 09:54:41;;;;;;;;;;;35.80;1.00;;;;;;5093948;28;20283;-73
2023/04/09 09:57:13;;;;;;;;;;;36.30;1.00;;;;;;5093673;28;20342;-73
2023/04/09 10:00:00;;;;;;;;;;;34.60;1.00;;;;;;5093768;28;19954;-74
2023/04/09 10:02:29;;;;;;;;;;;33.00;1.00;;;;;;5093691;28;19908;-73
2023/04/09 10:04:59;;;;;;;;;;;30.90;1.00;;;;;;5093917;28;19997;-72
2023/04/09 10:07:25;;;;;;;;;;;35.10;1.00;;;;;;5093655;28;19908;-73
2023/04/09 10:09:52;;;;;;;;;;;37.10;1.00;;;;;;5093848;28;19908;-73
2023/04/09 10:12:21;;;;;;;;;;;38.60;1.00;;;;;;5093797;28;19940;-74
2023/04/09 10:14:46;;;;;;;;;;;38.00;1.00;;;;;;5093695;28;20287;-74
2023/04/09 10:17:12;;;;;;;;;;;36.40;1.00;;;;;;5093461;28;19912;-74
2023/04/09 10:19:40;;;;;;;;;;;38.30;1.00;;;;;;5093675;28;20379;-74
2023/04/09 10:22:10;;;;;;;;;;;39.80;1.00;;;;;;5093578;28;20291;-73
2023/04/09 10:24:36;;;;;;;;;;;38.60;1.00;;;;;;5093462;28;19931;-73
2023/04/09 10:27:08;;;;;;;;;;;38.00;1.00;;;;;;5093659;28;20371;-74
2023/04/09 10:29:33;;;;;;;;;;;38.50;1.00;;;;;;5093598;28;19915;-74
2023/04/09 10:32:03;;;;;;;;;;;38.50;1.00;;;;;;5093390;28;19908;-74
2023/04/09 10:34:28;;;;;;;;;;;37.70;1.00;;;;;;5093431;28;20422;-73
2023/04/09 10:36:55;;;;;;;;;;;37.40;1.00;;;;;;5093263;28;19912;-72
2023/04/09 10:39:24;;;;;;;;;;;37.90;1.00;;;;;;5093165;28;19909;-73
2023/04/09 10:41:51;;;;;;;;;;;39.40;1.00;;;;;;5093454;28;19913;-75
2023/04/09 10:44:23;;;;;;;;;;;40.00;1.00;;;;;;5093464;28;19908;-74
2023/04/09 10:46:51;;;;;;;;;;;40.70;1.00;;;;;;5093215;28;19915;-75
2023/04/09 10:49:17;;;;;;;;;;;41.30;1.00;;;;;;5093473;28;19908;-74
2023/04/09 10:51:52;;;;;;;;;;;39.20;1.00;;;;;;5093417;28;19977;-74
2023/04/09 10:54:33;;;;;;;;;;;37.50;1.00;;;;;;5093277;28;19912;-75
2023/04/09 10:57:18;;;;;;;;;;;37.40;1.00;;;;;;5096321;28;19913;-74
2023/04/09 10:59:44;;;;;;;;;;;37.50;1.00;;;;;;5096955;28;20282;-74
2023/04/09 11:02:22;;;;;;;;;;;38.70;1.00;;;;;;5096845;28;19908;-75
2023/04/09 11:05:11;;;;;;;;;;;35.00;1.00;;;;;;5096662;28;19977;-73
2023/04/09 11:07:39;;;;;;;;;;;35.70;1.00;;;;;;5096717;28;19908;-75
2023/04/09 11:10:05;;;;;;;;;;;34.60;1.00;;;;;;5096599;28;19966;-74
2023/04/09 11:12:30;;;;;;;;;;;34.10;1.00;;;;;;5097101;28;19935;-73
2023/04/09 11:14:56;;;;;;;;;;;34.30;1.00;;;;;;5096577;28;19915;-74
2023/04/09 11:17:21;;;;;;;;;;;34.60;1.00;;;;;;5096479;28;20336;-74
2023/04/09 11:19:47;;;;;;;;;;;34.20;1.00;;;;;;5096683;28;19908;-74
2023/04/09 11:22:13;;;;;;;;;;;34.80;1.00;;;;;;5096430;28;20440;-73
2023/04/09 11:24:42;;;;;;;;;;;35.30;1.00;;;;;;5096837;28;19915;-73
2023/04/09 11:27:08;;;;;;;;;;;34.80;1.00;;;;;;5096674;28;19958;-75
2023/04/09 11:29:34;;;;;;;;;;;33.50;1.00;;;;;;5096302;28;19955;-75
2023/04/09 11:31:59;;;;;;;;;;;34.60;1.00;;;;;;5096255;28;20347;-75
2023/04/09 11:34:28;;;;;;;;;;;35.80;1.00;;;;;;5096357;28;19912;-73
2023/04/09 11:36:54;;;;;;;;;;;32.50;1.00;;;;;;5096333;28;20440;-73
2023/04/09 11:39:19;;;;;;;;;;;33.00;1.00;;;;;;5095885;28;19940;-74
2023/04/09 11:41:45;;;;;;;;;;;35.20;1.00;;;;;;5096111;28;19919;-75
2023/04/09 11:44:11;;;;;;;;;;;35.30;1.00;;;;;;5096249;28;20264;-73
2023/04/09 11:46:39;;;;;;;;;;;33.90;1.00;;;;;;5096221;28;19908;-74
2023/04/09 11:49:05;;;;;;;;;;;34.80;1.00;;;;;;5077741;28;19915;-73
2023/04/09 11:51:31;;;;;;;;;;;35.60;1.00;;;;;;5095872;28;19915;-73
2023/04/09 11:54:06;;;;;;;;;;;34.80;1.00;;;;;;5096258;28;19990;-74
2023/04/09 11:56:35;;;;;;;;;;;34.40;1.00;;;;;;5095813;28;20382;-73
2023/04/09 11:59:00;;;;;;;;;;;36.30;1.00;;;;;;5095618;28;19987;-73
2023/04/09 12:01:30;;;;;;;;;;;35.80;1.00;;;;;;5095625;28;19948;-74
2023/04/09 12:03:55;;;;;;;;;;;36.90;1.00;;;;;;5095589;28;19965;-73
2023/04/09 12:06:23;;;;;;;;;;;37.60;1.00;;;;;;5095379;28;19908;-74
2023/04/09 12:08:55;;;;;;;;;;;38.90;1.00;;;;;;5095530;28;20286;-74
2023/04/09 12:11:26;;;;;;;;;;;37.90;1.00;;;;;;5095431;28;19908;-74
2023/04/09 12:14:00;;;;;;;;;;;36.00;1.00;;;;;;5095433;28;19909;-73
2023/04/09 12:16:25;;;;;;;;;;;36.70;1.00;;;;;;5095660;28;19912;-74
2023/04/09 12:18:54;;;;;;;;;;;37.50;1.00;;;;;;5095638;28;20292;-73
2023/04/09 12:21:23;;;;;;;;;;;36.90;1.00;;;;;;5095225;28;19908;-73
2023/04/09 12:23:48;;;;;;;;;;;34.80;1.00;;;;;;5095196;28;20009;-73
2023/04/09 12:26:14;;;;;;;;;;;36.00;1.00;;;;;;5095147;28;19908;-74
2023/04/09 12:28:40;;;;;;;;;;;36.70;1.00;;;;;;5076865;28;19995;-73
2023/04/09 12:31:08;;;;;;;;;;;35.60;1.00;;;;;;5095426;28;19915;-73
2023/04/09 12:33:36;;;;;;;;;;;34.70;1.00;;;;;;5095058;28;19908;-73
2023/04/09 12:36:02;;;;;;;;;;;32.80;1.00;;;;;;5095053;28;19947;-73
2023/04/09 12:38:28;;;;;;;;;;;31.80;1.00;;;;;;5094834;28;19919;-72
2023/04/09 12:40:53;;;;;;;;;;;32.30;1.00;;;;;;5094700;28;19977;-73
2023/04/09 12:43:19;;;;;;;;;;;32.60;1.00;;;;;;5094998;28;19915;-73
2023/04/09 12:45:45;;;;;;;;;;;31.90;1.00;;;;;;5094782;28;19908;-74
2023/04/09 12:48:11;;;;;;;;;;;31.30;1.00;;;;;;5094852;28;19908;-73
2023/04/09 12:50:37;;;;;;;;;;;32.30;1.00;;;;;;5076491;28;19908;-73
2023/04/09 12:53:02;;;;;;;;;;;32.40;1.00;;;;;;5094686;28;19912;-73
2023/04/09 12:55:28;;;;;;;;;;;32.00;1.00;;;;;;5094938;28;19915;-72
2023/04/09 12:57:53;;;;;;;;;;;31.50;1.00;;;;;;5094649;28;19930;-72
2023/04/09 13:00:19;;;;;;;;;;;31.20;1.00;;;;;;5094549;28;19908;-73
2023/04/09 13:02:45;;;;;;;;;;;31.90;1.00;;;;;;5094567;28;20291;-74
2023/04/09 13:05:10;;;;;;;;;;;31.10;1.00;;;;;;5094849;28;19908;-72
2023/04/09 13:07:36;;;;;;;;;;;31.40;1.00;;;;;;5094354;28;19916;-73
2023/04/09 13:10:02;;;;;;;;;;;31.10;1.00;;;;;;5094333;28;19908;-72
2023/04/09 13:12:27;;;;;;;;;;;30.10;1.00;;;;;;5094314;28;20393;-72
2023/04/09 13:14:53;;;;;;;;;;;29.50;1.00;;;;;;5094554;28;19958;-71
2023/04/09 13:17:19;;;;;;;;;;;29.60;1.00;;;;;;5094185;28;19999;-73
2023/04/09 13:19:44;;;;;;;;;;;29.60;1.00;;;;;;5093922;28;19951;-73
2023/04/09 13:22:10;;;;;;;;;;;29.80;1.00;;;;;;5094180;28;19990;-72
2023/04/09 13:24:36;;;;;;;;;;;30.30;1.00;;;;;;5094136;28;20376;-72
2023/04/09 13:27:08;;;;;;;;;;;29.40;1.00;;;;;;5094104;28;19915;-72
2023/04/09 13:29:33;;;;;;;;;;;29.00;1.00;;;;;;5094058;28;19994;-72
2023/04/09 13:32:01;;;;;;;;;;;29.60;1.00;;;;;;5094055;28;19908;-72
2023/04/09 13:34:26;;;;;;;;;;;29.40;1.00;;;;;;5093974;28;20289;-72
2023/04/09 13:36:52;;;;;;;;;;;29.40;1.00;;;;;;5094055;28;19919;-73
2023/04/09 13:39:18;;;;;;;;;;;30.30;1.00;;;;;;5094019;28;19994;-72
2023/04/09 13:41:43;;;;;;;;;;;29.20;1.00;;;;;;5075591;28;19920;-72
2023/04/09 13:44:09;;;;;;;;;;;29.70;1.00;;;;;;5093906;28;19908;-74
2023/04/09 13:46:35;;;;;;;;;;;30.60;1.00;;;;;;5093815;28;19916;-71
2023/04/09 13:49:01;;;;;;;;;;;30.00;1.00;;;;;;5093822;28;19947;-72
2023/04/09 13:51:28;;;;;;;;;;;29.40;1.00;;;;;;5075729;28;20000;-73
2023/04/09 13:53:54;;;;;;;;;;;28.80;1.00;;;;;;5093986;28;19915;-71
2023/04/09 13:56:20;;;;;;;;;;;28.50;1.00;;;;;;5093974;28;19912;-73
2023/04/09 13:58:46;;;;;;;;;;;27.30;1.00;;;;;;5093637;28;19908;-72
2023/04/09 14:01:12;;;;;;;;;;;26.90;1.00;;;;;;5093679;28;19930;-72
2023/04/09 14:03:38;;;;;;;;;;;25.60;1.00;;;;;;5094030;28;19951;-72
2023/04/09 14:06:05;;;;;;;;;;;25.80;1.00;;;;;;5093857;28;19939;-72
2023/04/09 14:08:30;;;;;;;;;;;26.60;1.00;;;;;;5093688;28;19912;-72
2023/04/09 14:10:56;;;;;;;;;;;27.20;1.00;;;;;;5093572;28;19908;-72
2023/04/09 14:13:21;;;;;;;;;;;26.40;1.00;;;;;;5094041;28;19909;-73
2023/04/09 14:15:48;;;;;;;;;;;26.30;1.00;;;;;;5075352;28;20346;-73
2023/04/09 14:18:14;;;;;;;;;;;25.60;1.00;;;;;;5093655;28;19991;-72
2023/04/09 14:20:40;;;;;;;;;;;25.10;1.00;;;;;;5093606;28;20355;-72
2023/04/09 14:23:05;;;;;;;;;;;25.00;1.00;;;;;;5093526;28;19955;-72
2023/04/09 14:25:31;;;;;;;;;;;24.80;1.00;;;;;;5093705;28;20367;-71
2023/04/09 14:27:57;;;;;;;;;;;24.00;1.00;;;;;;5093741;28;20273;-73
2023/04/09 14:30:23;;;;;;;;;;;23.80;1.00;;;;;;5094237;28;19915;-71